sensor_id;sensor_type;location;lat;lon;timestamp;temperature;humidity
49052;DHT22;34866;48.670;18.260;2023-06-04T00:00:17;256.50;6502.40
49052;DHT22;34866;48.670;18.260;2023-06-04T00:02:43;256.30;6502.40
49052;DHT22;34866;48.670;18.260;2023-06-04T00:05:08;256.20;6502.40
49052;DHT22;34866;48.670;18.260;2023-06-04T00:07:34;256.20;128.00
49052;DHT22;34866;48.670;18.260;2023-06-04T00:09:59;256.20;128.00
49052;DHT22;34866;48.670;18.260;2023-06-04T00:12:32;256.30;128.00
49052;DHT22;34866;48.670;18.260;2023-06-04T00:14:57;231.20;230.40
49052;DHT22;34866;48.670;18.260;2023-06-04T00:17:29;231.00;486.40
49052;DHT22;34866;48.670;18.260;2023-06-04T00:19:58;230.90;691.20
49052;DHT22;34866;48.670;18.260;2023-06-04T00:22:24;230.70;972.80
49052;DHT22;34866;48.670;18.260;2023-06-04T00:24:53;230.80;1203.20
49052;DHT22;34866;48.670;18.260;2023-06-04T00:27:18;230.90;665.60
49052;DHT22;34866;48.670;18.260;2023-06-04T00:29:44;230.80;921.60
49052;DHT22;34866;48.670;18.260;2023-06-04T00:32:10;230.90;1152.00
49052;DHT22;34866;48.670;18.260;2023-06-04T00:34:36;230.70;1484.80
49052;DHT22;34866;48.670;18.260;2023-06-04T00:37:01;230.80;1254.40
49052;DHT22;34866;48.670;18.260;2023-06-04T00:39:28;230.80;1536.00
49052;DHT22;34866;48.670;18.260;2023-06-04T00:41:55;230.80;1689.60
49052;DHT22;34866;48.670;18.260;2023-06-04T00:44:21;231.00;1356.80
49052;DHT22;34866;48.670;18.260;2023-06-04T00:46:51;231.00;844.80
49052;DHT22;34866;48.670;18.260;2023-06-04T00:49:20;231.00;768.00
49052;DHT22;34866;48.670;18.260;2023-06-04T00:51:46;230.90;1049.60
49052;DHT22;34866;48.670;18.260;2023-06-04T00:54:12;230.80;1152.00
49052;DHT22;34866;48.670;18.260;2023-06-04T00:56:46;230.80;1228.80
49052;DHT22;34866;48.670;18.260;2023-06-04T00:59:12;230.60;1561.60
49052;DHT22;34866;48.670;18.260;2023-06-04T01:02:00;205.70;2252.80
49052;DHT22;34866;48.670;18.260;2023-06-04T01:04:31;230.40;2252.80
49052;DHT22;34866;48.670;18.260;2023-06-04T01:06:58;230.50;2252.80
49052;DHT22;34866;48.670;18.260;2023-06-04T01:09:27;230.40;2252.80
49052;DHT22;34866;48.670;18.260;2023-06-04T01:11:53;230.40;2252.80
49052;DHT22;34866;48.670;18.260;2023-06-04T01:14:20;205.70;2252.80
49052;DHT22;34866;48.670;18.260;2023-06-04T01:22:54;230.40;2252.80
49052;DHT22;34866;48.670;18.260;2023-06-04T01:25:37;230.40;2252.80
49052;DHT22;34866;48.670;18.260;2023-06-04T01:28:08;230.50;2252.80
49052;DHT22;34866;48.670;18.260;2023-06-04T01:30:41;230.40;2252.80
49052;DHT22;34866;48.670;18.260;2023-06-04T01:33:32;230.50;2252.80
49052;DHT22;34866;48.670;18.260;2023-06-04T01:35:58;205.50;2252.80
49052;DHT22;34866;48.670;18.260;2023-06-04T01:38:27;205.50;2252.80
49052;DHT22;34866;48.670;18.260;2023-06-04T01:40:53;205.40;2252.80
49052;DHT22;34866;48.670;18.260;2023-06-04T01:43:29;205.50;2252.80
49052;DHT22;34866;48.670;18.260;2023-06-04T01:45:58;205.60;2252.80
49052;DHT22;34866;48.670;18.260;2023-06-04T01:48:27;205.50;2252.80
49052;DHT22;34866;48.670;18.260;2023-06-04T01:50:52;205.50;2252.80
49052;DHT22;34866;48.670;18.260;2023-06-04T01:53:21;205.60;2252.80
49052;DHT22;34866;48.670;18.260;2023-06-04T01:55:56;205.50;2252.80
49052;DHT22;34866;48.670;18.260;2023-06-04T01:58:35;205.60;2252.80
49052;DHT22;34866;48.670;18.260;2023-06-04T02:01:07;205.50;2252.80
49052;DHT22;34866;48.670;18.260;2023-06-04T02:03:32;205.60;2252.80
49052;DHT22;34866;48.670;18.260;2023-06-04T02:06:05;205.50;2252.80
49052;DHT22;34866;48.670;18.260;2023-06-04T02:08:39;205.50;2252.80
49052;DHT22;34866;48.670;18.260;2023-06-04T02:11:12;205.50;2252.80
49052;DHT22;34866;48.670;18.260;2023-06-04T02:13:37;205.30;2252.80
49052;DHT22;34866;48.670;18.260;2023-06-04T02:16:06;205.20;2252.80
49052;DHT22;34866;48.670;18.260;2023-06-04T02:18:33;205.20;2252.80
49052;DHT22;34866;48.670;18.260;2023-06-04T02:21:05;205.40;2252.80
49052;DHT22;34866;48.670;18.260;2023-06-04T02:23:32;205.30;2252.80
49052;DHT22;34866;48.670;18.260;2023-06-04T02:26:01;205.20;2252.80
49052;DHT22;34866;48.670;18.260;2023-06-04T02:28:26;205.30;2252.80
49052;DHT22;34866;48.670;18.260;2023-06-04T02:30:55;205.30;2252.80
49052;DHT22;34866;48.670;18.260;2023-06-04T02:33:22;205.30;2252.80
49052;DHT22;34866;48.670;18.260;2023-06-04T02:35:53;205.30;2252.80
49052;DHT22;34866;48.670;18.260;2023-06-04T02:38:19;205.10;2252.80
49052;DHT22;34866;48.670;18.260;2023-06-04T02:40:55;205.10;2252.80
49052;DHT22;34866;48.670;18.260;2023-06-04T02:43:21;205.30;2252.80
49052;DHT22;34866;48.670;18.260;2023-06-04T02:45:46;205.50;2252.80
49052;DHT22;34866;48.670;18.260;2023-06-04T02:48:12;205.40;2252.80
49052;DHT22;34866;48.670;18.260;2023-06-04T02:50:38;205.30;2252.80
49052;DHT22;34866;48.670;18.260;2023-06-04T02:53:05;205.50;2252.80
49052;DHT22;34866;48.670;18.260;2023-06-04T02:55:58;205.60;2252.80
49052;DHT22;34866;48.670;18.260;2023-06-04T02:58:28;205.60;2252.80
49052;DHT22;34866;48.670;18.260;2023-06-04T03:00:57;205.60;2252.80
49052;DHT22;34866;48.670;18.260;2023-06-04T03:03:23;205.50;2252.80
49052;DHT22;34866;48.670;18.260;2023-06-04T03:05:54;205.60;2252.80
49052;DHT22;34866;48.670;18.260;2023-06-04T03:08:21;205.60;2252.80
49052;DHT22;34866;48.670;18.260;2023-06-04T03:10:56;205.60;2252.80
49052;DHT22;34866;48.670;18.260;2023-06-04T03:13:25;205.70;2252.80
49052;DHT22;34866;48.670;18.260;2023-06-04T03:15:50;230.40;2252.80
49052;DHT22;34866;48.670;18.260;2023-06-04T03:18:18;205.70;2252.80
49052;DHT22;34866;48.670;18.260;2023-06-04T03:20:45;230.40;2252.80
49052;DHT22;34866;48.670;18.260;2023-06-04T03:23:12;230.40;2252.80
49052;DHT22;34866;48.670;18.260;2023-06-04T03:25:41;230.50;2252.80
49052;DHT22;34866;48.670;18.260;2023-06-04T03:28:07;230.50;2252.80
49052;DHT22;34866;48.670;18.260;2023-06-04T03:30:52;230.60;2252.80
49052;DHT22;34866;48.670;18.260;2023-06-04T03:33:21;230.60;2252.80
49052;DHT22;34866;48.670;18.260;2023-06-04T03:35:50;230.70;2252.80
49052;DHT22;34866;48.670;18.260;2023-06-04T03:38:31;230.70;2252.80
49052;DHT22;34866;48.670;18.260;2023-06-04T03:41:00;230.90;2252.80
49052;DHT22;34866;48.670;18.260;2023-06-04T03:43:25;230.80;2252.80
49052;DHT22;34866;48.670;18.260;2023-06-04T03:45:51;230.90;2252.80
49052;DHT22;34866;48.670;18.260;2023-06-04T03:48:26;230.90;2252.80
49052;DHT22;34866;48.670;18.260;2023-06-04T03:51:11;231.00;2252.80
49052;DHT22;34866;48.670;18.260;2023-06-04T03:53:42;231.00;2252.80
49052;DHT22;34866;48.670;18.260;2023-06-04T03:56:08;231.00;2252.80
49052;DHT22;34866;48.670;18.260;2023-06-04T03:58:37;230.90;2252.80
49052;DHT22;34866;48.670;18.260;2023-06-04T04:01:02;231.10;2252.80
49052;DHT22;34866;48.670;18.260;2023-06-04T04:03:39;231.30;2252.80
49052;DHT22;34866;48.670;18.260;2023-06-04T04:06:05;231.30;2252.80
49052;DHT22;34866;48.670;18.260;2023-06-04T04:08:32;256.00;2252.80
49052;DHT22;34866;48.670;18.260;2023-06-04T04:10:59;256.00;2252.80
49052;DHT22;34866;48.670;18.260;2023-06-04T04:13:25;256.10;2252.80
49052;DHT22;34866;48.670;18.260;2023-06-04T04:15:51;256.10;2252.80
49052;DHT22;34866;48.670;18.260;2023-06-04T04:18:22;256.20;2252.80
49052;DHT22;34866;48.670;18.260;2023-06-04T04:20:47;256.20;2252.80
49052;DHT22;34866;48.670;18.260;2023-06-04T04:23:18;256.30;2252.80
49052;DHT22;34866;48.670;18.260;2023-06-04T04:25:45;256.40;2252.80
49052;DHT22;34866;48.670;18.260;2023-06-04T04:28:16;256.70;2252.80
49052;DHT22;34866;48.670;18.260;2023-06-04T04:30:46;256.70;2176.00
49052;DHT22;34866;48.670;18.260;2023-06-04T04:33:21;256.70;2252.80
49052;DHT22;34866;48.670;18.260;2023-06-04T04:35:55;256.70;2252.80
49052;DHT22;34866;48.670;18.260;2023-06-04T04:38:22;256.80;2252.80
49052;DHT22;34866;48.670;18.260;2023-06-04T04:40:51;256.90;2252.80
49052;DHT22;34866;48.670;18.260;2023-06-04T04:43:36;256.90;2124.80
49052;DHT22;34866;48.670;18.260;2023-06-04T04:46:06;281.70;1843.20
49052;DHT22;34866;48.670;18.260;2023-06-04T04:48:32;281.80;1920.00
49052;DHT22;34866;48.670;18.260;2023-06-04T04:51:17;281.80;2278.40
49052;DHT22;34866;48.670;18.260;2023-06-04T04:53:45;281.90;1638.40
49052;DHT22;34866;48.670;18.260;2023-06-04T04:56:17;282.00;1152.00
49052;DHT22;34866;48.670;18.260;2023-06-04T04:58:45;282.10;1740.80
49052;DHT22;34866;48.670;18.260;2023-06-04T05:01:57;282.20;870.40
49052;DHT22;34866;48.670;18.260;2023-06-04T05:04:27;282.40;1228.80
49052;DHT22;34866;48.670;18.260;2023-06-04T05:07:05;282.40;1152.00
49052;DHT22;34866;48.670;18.260;2023-06-04T05:09:31;282.50;998.40
49052;DHT22;34866;48.670;18.260;2023-06-04T05:11:58;307.20;1305.60
49052;DHT22;34866;48.670;18.260;2023-06-04T05:14:33;307.40;153.60
49052;DHT22;34866;48.670;18.260;2023-06-04T05:17:02;307.50;128.00
49052;DHT22;34866;48.670;18.260;2023-06-04T05:20:00;307.60;128.00
49052;DHT22;34866;48.670;18.260;2023-06-04T05:22:32;307.70;128.00
49052;DHT22;34866;48.670;18.260;2023-06-04T05:25:36;308.00;128.00
49052;DHT22;34866;48.670;18.260;2023-06-04T05:28:05;333.10;128.00
49052;DHT22;34866;48.670;18.260;2023-06-04T05:30:38;333.10;128.00
49052;DHT22;34866;48.670;18.260;2023-06-04T05:36:15;332.80;128.00
49052;DHT22;34866;48.670;18.260;2023-06-04T05:38:44;333.00;128.00
49052;DHT22;34866;48.670;18.260;2023-06-04T05:41:15;333.00;128.00
49052;DHT22;34866;48.670;18.260;2023-06-04T05:43:45;333.30;128.00
49052;DHT22;34866;48.670;18.260;2023-06-04T05:46:14;384.40;128.00
49052;DHT22;34866;48.670;18.260;2023-06-04T05:49:04;358.70;128.00
49052;DHT22;34866;48.670;18.260;2023-06-04T05:51:54;333.50;128.00
49052;DHT22;34866;48.670;18.260;2023-06-04T05:54:28;358.80;128.00
49052;DHT22;34866;48.670;18.260;2023-06-04T05:56:57;358.90;128.00
49052;DHT22;34866;48.670;18.260;2023-06-04T05:59:24;358.80;128.00
49052;DHT22;34866;48.670;18.260;2023-06-04T06:02:26;384.70;128.00
49052;DHT22;34866;48.670;18.260;2023-06-04T06:04:52;384.70;128.00
49052;DHT22;34866;48.670;18.260;2023-06-04T06:07:30;359.00;128.00
49052;DHT22;34866;48.670;18.260;2023-06-04T06:10:23;359.30;128.00
49052;DHT22;34866;48.670;18.260;2023-06-04T06:12:49;359.20;128.00
49052;DHT22;34866;48.670;18.260;2023-06-04T06:15:15;359.10;128.00
49052;DHT22;34866;48.670;18.260;2023-06-04T06:17:41;384.00;128.00
49052;DHT22;34866;48.670;18.260;2023-06-04T06:20:07;384.20;128.00
49052;DHT22;34866;48.670;18.260;2023-06-04T06:25:38;384.10;563.20
49052;DHT22;34866;48.670;18.260;2023-06-04T06:28:06;384.00;204.80
49052;DHT22;34866;48.670;18.260;2023-06-04T06:30:39;384.20;435.20
49052;DHT22;34866;48.670;18.260;2023-06-04T06:33:05;384.30;128.00
49052;DHT22;34866;48.670;18.260;2023-06-04T06:39:02;409.80;128.00
49052;DHT22;34866;48.670;18.260;2023-06-04T06:41:34;384.70;128.00
49052;DHT22;34866;48.670;18.260;2023-06-04T06:43:59;384.60;128.00
49052;DHT22;34866;48.670;18.260;2023-06-04T06:46:26;384.80;128.00
49052;DHT22;34866;48.670;18.260;2023-06-04T06:48:58;384.80;128.00
49052;DHT22;34866;48.670;18.260;2023-06-04T06:51:26;384.70;128.00
49052;DHT22;34866;48.670;18.260;2023-06-04T06:54:14;384.90;128.00
49052;DHT22;34866;48.670;18.260;2023-06-04T06:56:43;409.70;128.00
49052;DHT22;34866;48.670;18.260;2023-06-04T06:59:22;409.80;128.00
49052;DHT22;34866;48.670;18.260;2023-06-04T07:02:12;410.10;409.60
49052;DHT22;34866;48.670;18.260;2023-06-04T07:04:44;410.00;128.00
49052;DHT22;34866;48.670;18.260;2023-06-04T07:07:16;410.00;128.00
49052;DHT22;34866;48.670;18.260;2023-06-04T07:09:42;410.10;128.00
49052;DHT22;34866;48.670;18.260;2023-06-04T07:12:17;410.10;128.00
49052;DHT22;34866;48.670;18.260;2023-06-04T07:14:43;410.30;128.00
49052;DHT22;34866;48.670;18.260;2023-06-04T07:17:15;410.40;128.00
49052;DHT22;34866;48.670;18.260;2023-06-04T07:19:55;435.30;128.00
49052;DHT22;34866;48.670;18.260;2023-06-04T07:22:24;435.30;128.00
49052;DHT22;34866;48.670;18.260;2023-06-04T07:24:56;435.30;128.00
49052;DHT22;34866;48.670;18.260;2023-06-04T07:27:21;435.30;128.00
49052;DHT22;34866;48.670;18.260;2023-06-04T07:30:03;435.40;128.00
49052;DHT22;34866;48.670;18.260;2023-06-04T07:32:38;435.60;128.00
49052;DHT22;34866;48.670;18.260;2023-06-04T07:35:16;435.40;128.00
49052;DHT22;34866;48.670;18.260;2023-06-04T07:38:14;435.40;128.00
49052;DHT22;34866;48.670;18.260;2023-06-04T07:40:40;435.60;128.00
49052;DHT22;34866;48.670;18.260;2023-06-04T07:43:06;435.60;128.00
49052;DHT22;34866;48.670;18.260;2023-06-04T07:45:31;435.90;128.00
49052;DHT22;34866;48.670;18.260;2023-06-04T07:47:57;435.80;128.00
49052;DHT22;34866;48.670;18.260;2023-06-04T07:50:24;435.80;128.00
49052;DHT22;34866;48.670;18.260;2023-06-04T07:52:50;435.90;128.00
49052;DHT22;34866;48.670;18.260;2023-06-04T07:55:26;435.90;128.00
49052;DHT22;34866;48.670;18.260;2023-06-04T07:57:54;436.00;128.00
49052;DHT22;34866;48.670;18.260;2023-06-04T08:00:19;460.80;128.00
49052;DHT22;34866;48.670;18.260;2023-06-04T08:02:45;460.80;128.00
49052;DHT22;34866;48.670;18.260;2023-06-04T08:05:12;460.90;128.00
49052;DHT22;34866;48.670;18.260;2023-06-04T08:07:41;436.10;128.00
49052;DHT22;34866;48.670;18.260;2023-06-04T08:10:10;436.10;128.00
49052;DHT22;34866;48.670;18.260;2023-06-04T08:12:36;435.90;128.00
49052;DHT22;34866;48.670;18.260;2023-06-04T08:15:25;436.10;128.00
49052;DHT22;34866;48.670;18.260;2023-06-04T08:17:52;460.90;128.00
49052;DHT22;34866;48.670;18.260;2023-06-04T08:20:19;460.90;128.00
49052;DHT22;34866;48.670;18.260;2023-06-04T08:22:45;461.10;128.00
49052;DHT22;34866;48.670;18.260;2023-06-04T08:25:16;461.20;512.00
49052;DHT22;34866;48.670;18.260;2023-06-04T08:27:41;461.20;128.00
49052;DHT22;34866;48.670;18.260;2023-06-04T08:30:13;461.00;128.00
49052;DHT22;34866;48.670;18.260;2023-06-04T08:32:39;461.20;460.80
49052;DHT22;34866;48.670;18.260;2023-06-04T08:35:07;461.30;128.00
49052;DHT22;34866;48.670;18.260;2023-06-04T08:37:36;461.50;128.00
49052;DHT22;34866;48.670;18.260;2023-06-04T08:40:22;461.50;128.00
49052;DHT22;34866;48.670;18.260;2023-06-04T08:42:49;461.50;128.00
49052;DHT22;34866;48.670;18.260;2023-06-04T08:45:20;461.40;128.00
49052;DHT22;34866;48.670;18.260;2023-06-04T08:47:50;461.30;128.00
49052;DHT22;34866;48.670;18.260;2023-06-04T08:50:24;461.20;128.00
49052;DHT22;34866;48.670;18.260;2023-06-04T08:52:56;461.20;128.00
49052;DHT22;34866;48.670;18.260;2023-06-04T08:55:50;461.00;128.00
49052;DHT22;34866;48.670;18.260;2023-06-04T08:58:27;460.90;128.00
49052;DHT22;34866;48.670;18.260;2023-06-04T09:00:56;436.10;128.00
49052;DHT22;34866;48.670;18.260;2023-06-04T09:03:22;460.80;128.00
49052;DHT22;34866;48.670;18.260;2023-06-04T09:05:50;436.00;128.00
49052;DHT22;34866;48.670;18.260;2023-06-04T09:08:16;435.90;128.00
49052;DHT22;34866;48.670;18.260;2023-06-04T09:10:43;436.10;128.00
49052;DHT22;34866;48.670;18.260;2023-06-04T09:13:13;436.00;128.00
49052;DHT22;34866;48.670;18.260;2023-06-04T09:15:40;435.90;128.00
49052;DHT22;34866;48.670;18.260;2023-06-04T09:18:06;435.90;128.00
49052;DHT22;34866;48.670;18.260;2023-06-04T09:20:31;435.90;128.00
49052;DHT22;34866;48.670;18.260;2023-06-04T09:22:58;435.90;128.00
49052;DHT22;34866;48.670;18.260;2023-06-04T09:25:29;435.80;128.00
49052;DHT22;34866;48.670;18.260;2023-06-04T09:31:01;436.00;128.00
49052;DHT22;34866;48.670;18.260;2023-06-04T09:33:30;436.00;128.00
49052;DHT22;34866;48.670;18.260;2023-06-04T09:36:02;436.10;128.00
49052;DHT22;34866;48.670;18.260;2023-06-04T09:38:37;436.10;128.00
49052;DHT22;34866;48.670;18.260;2023-06-04T09:41:22;460.90;128.00
49052;DHT22;34866;48.670;18.260;2023-06-04T09:43:49;460.90;128.00
49052;DHT22;34866;48.670;18.260;2023-06-04T09:46:17;460.80;128.00
49052;DHT22;34866;48.670;18.260;2023-06-04T09:48:44;436.00;256.00
49052;DHT22;34866;48.670;18.260;2023-06-04T09:51:16;435.70;128.00
49052;DHT22;34866;48.670;18.260;2023-06-04T09:53:55;436.00;128.00
49052;DHT22;34866;48.670;18.260;2023-06-04T09:56:25;435.80;409.60
49052;DHT22;34866;48.670;18.260;2023-06-04T09:58:58;435.80;128.00
49052;DHT22;34866;48.670;18.260;2023-06-04T10:01:27;435.60;128.00
49052;DHT22;34866;48.670;18.260;2023-06-04T10:04:06;435.70;128.00
49052;DHT22;34866;48.670;18.260;2023-06-04T10:06:51;435.60;128.00
49052;DHT22;34866;48.670;18.260;2023-06-04T10:09:17;435.40;128.00
49052;DHT22;34866;48.670;18.260;2023-06-04T10:11:48;435.30;128.00
49052;DHT22;34866;48.670;18.260;2023-06-04T10:14:31;435.30;128.00
49052;DHT22;34866;48.670;18.260;2023-06-04T10:17:00;435.30;128.00
49052;DHT22;34866;48.670;18.260;2023-06-04T10:19:26;435.40;128.00
49052;DHT22;34866;48.670;18.260;2023-06-04T10:21:53;435.60;332.80
49052;DHT22;34866;48.670;18.260;2023-06-04T10:24:19;435.60;128.00
49052;DHT22;34866;48.670;18.260;2023-06-04T10:26:47;435.70;128.00
49052;DHT22;34866;48.670;18.260;2023-06-04T10:29:13;435.60;307.20
49052;DHT22;34866;48.670;18.260;2023-06-04T10:31:39;435.70;128.00
49052;DHT22;34866;48.670;18.260;2023-06-04T10:34:07;435.70;128.00
49052;DHT22;34866;48.670;18.260;2023-06-04T10:36:41;435.70;128.00
49052;DHT22;34866;48.670;18.260;2023-06-04T10:39:12;435.70;486.40
49052;DHT22;34866;48.670;18.260;2023-06-04T10:41:38;435.70;128.00
49052;DHT22;34866;48.670;18.260;2023-06-04T10:44:03;435.90;128.00
49052;DHT22;34866;48.670;18.260;2023-06-04T10:46:39;435.90;512.00
49052;DHT22;34866;48.670;18.260;2023-06-04T10:49:06;435.90;665.60
49052;DHT22;34866;48.670;18.260;2023-06-04T10:51:32;435.80;128.00
49052;DHT22;34866;48.670;18.260;2023-06-04T10:53:58;435.90;128.00
49052;DHT22;34866;48.670;18.260;2023-06-04T10:56:31;436.00;128.00
49052;DHT22;34866;48.670;18.260;2023-06-04T10:59:20;436.00;128.00
49052;DHT22;34866;48.670;18.260;2023-06-04T11:01:49;436.00;128.00
49052;DHT22;34866;48.670;18.260;2023-06-04T11:04:22;436.00;128.00
49052;DHT22;34866;48.670;18.260;2023-06-04T11:06:48;435.90;128.00
49052;DHT22;34866;48.670;18.260;2023-06-04T11:09:26;436.00;128.00
49052;DHT22;34866;48.670;18.260;2023-06-04T11:11:58;436.10;128.00
49052;DHT22;34866;48.670;18.260;2023-06-04T11:14:25;435.90;128.00
49052;DHT22;34866;48.670;18.260;2023-06-04T11:17:20;436.10;128.00
49052;DHT22;34866;48.670;18.260;2023-06-04T11:19:46;460.80;128.00
49052;DHT22;34866;48.670;18.260;2023-06-04T11:22:12;460.90;128.00
49052;DHT22;34866;48.670;18.260;2023-06-04T11:24:37;461.00;128.00
49052;DHT22;34866;48.670;18.260;2023-06-04T11:27:08;461.00;128.00
49052;DHT22;34866;48.670;18.260;2023-06-04T11:29:36;461.30;128.00
49052;DHT22;34866;48.670;18.260;2023-06-04T11:32:23;461.30;128.00
49052;DHT22;34866;48.670;18.260;2023-06-04T11:35:23;461.60;153.60
49052;DHT22;34866;48.670;18.260;2023-06-04T11:37:57;461.40;128.00
49052;DHT22;34866;48.670;18.260;2023-06-04T11:40:27;460.90;128.00
49052;DHT22;34866;48.670;18.260;2023-06-04T11:42:53;461.10;204.80
49052;DHT22;34866;48.670;18.260;2023-06-04T11:45:42;461.00;332.80
49052;DHT22;34866;48.670;18.260;2023-06-04T11:48:12;461.00;128.00
49052;DHT22;34866;48.670;18.260;2023-06-04T11:50:43;461.00;512.00
49052;DHT22;34866;48.670;18.260;2023-06-04T11:53:14;460.90;614.40
49052;DHT22;34866;48.670;18.260;2023-06-04T11:55:46;460.90;128.00
49052;DHT22;34866;48.670;18.260;2023-06-04T11:58:12;460.90;128.00
49052;DHT22;34866;48.670;18.260;2023-06-04T12:00:41;436.10;179.20
49052;DHT22;34866;48.670;18.260;2023-06-04T12:03:15;436.00;128.00
49052;DHT22;34866;48.670;18.260;2023-06-04T12:05:46;435.90;128.00
49052;DHT22;34866;48.670;18.260;2023-06-04T12:08:18;436.10;256.00
49052;DHT22;34866;48.670;18.260;2023-06-04T12:11:25;436.00;128.00
49052;DHT22;34866;48.670;18.260;2023-06-04T12:14:36;436.00;128.00
49052;DHT22;34866;48.670;18.260;2023-06-04T12:17:08;436.10;128.00
49052;DHT22;34866;48.670;18.260;2023-06-04T12:19:47;436.00;128.00
49052;DHT22;34866;48.670;18.260;2023-06-04T12:22:14;435.80;128.00
49052;DHT22;34866;48.670;18.260;2023-06-04T12:24:48;435.40;128.00
49052;DHT22;34866;48.670;18.260;2023-06-04T12:27:14;435.60;128.00
49052;DHT22;34866;48.670;18.260;2023-06-04T12:30:13;435.50;128.00
49052;DHT22;34866;48.670;18.260;2023-06-04T12:32:35;435.40;512.00
49052;DHT22;34866;48.670;18.260;2023-06-04T12:35:01;435.30;128.00
49052;DHT22;34866;48.670;18.260;2023-06-04T12:37:28;435.20;128.00
49052;DHT22;34866;48.670;18.260;2023-06-04T12:40:30;435.30;128.00
49052;DHT22;34866;48.670;18.260;2023-06-04T12:42:56;410.50;614.40
49052;DHT22;34866;48.670;18.260;2023-06-04T12:45:21;410.50;128.00
49052;DHT22;34866;48.670;18.260;2023-06-04T12:47:47;435.20;128.00
49052;DHT22;34866;48.670;18.260;2023-06-04T12:50:13;410.50;128.00
49052;DHT22;34866;48.670;18.260;2023-06-04T12:52:38;410.40;128.00
49052;DHT22;34866;48.670;18.260;2023-06-04T12:55:06;410.40;128.00
49052;DHT22;34866;48.670;18.260;2023-06-04T12:57:38;410.10;128.00
49052;DHT22;34866;48.670;18.260;2023-06-04T13:06:38;410.00;128.00
49052;DHT22;34866;48.670;18.260;2023-06-04T13:09:57;409.60;128.00
49052;DHT22;34866;48.670;18.260;2023-06-04T13:12:23;384.40;128.00
49052;DHT22;34866;48.670;18.260;2023-06-04T13:14:50;359.30;128.00
49052;DHT22;34866;48.670;18.260;2023-06-04T13:17:19;359.30;691.20
49052;DHT22;34866;48.670;18.260;2023-06-04T13:19:44;359.30;742.40
49052;DHT22;34866;48.670;18.260;2023-06-04T13:22:10;359.20;1433.60
49052;DHT22;34866;48.670;18.260;2023-06-04T13:24:36;359.30;1280.00
49052;DHT22;34866;48.670;18.260;2023-06-04T13:27:02;359.30;793.60
49052;DHT22;34866;48.670;18.260;2023-06-04T13:29:47;384.10;512.00
49052;DHT22;34866;48.670;18.260;2023-06-04T13:32:13;384.10;512.00
49052;DHT22;34866;48.670;18.260;2023-06-04T13:34:38;384.30;793.60
49052;DHT22;34866;48.670;18.260;2023-06-04T13:37:04;384.30;512.00
49052;DHT22;34866;48.670;18.260;2023-06-04T13:39:30;384.20;614.40
49052;DHT22;34866;48.670;18.260;2023-06-04T13:41:57;384.30;153.60
49052;DHT22;34866;48.670;18.260;2023-06-04T13:44:23;384.20;998.40
49052;DHT22;34866;48.670;18.260;2023-06-04T13:46:53;384.30;1075.20
49052;DHT22;34866;48.670;18.260;2023-06-04T13:49:19;384.50;1280.00
49052;DHT22;34866;48.670;18.260;2023-06-04T13:51:45;384.50;128.00
49052;DHT22;34866;48.670;18.260;2023-06-04T13:54:12;384.80;128.00
49052;DHT22;34866;48.670;18.260;2023-06-04T13:56:38;384.50;128.00
49052;DHT22;34866;48.670;18.260;2023-06-04T13:59:05;384.70;128.00
49052;DHT22;34866;48.670;18.260;2023-06-04T14:01:31;384.40;128.00
49052;DHT22;34866;48.670;18.260;2023-06-04T14:03:57;384.50;128.00
49052;DHT22;34866;48.670;18.260;2023-06-04T14:06:24;384.50;128.00
49052;DHT22;34866;48.670;18.260;2023-06-04T14:08:50;384.40;128.00
49052;DHT22;34866;48.670;18.260;2023-06-04T14:11:16;384.50;128.00
49052;DHT22;34866;48.670;18.260;2023-06-04T14:13:41;384.30;435.20
49052;DHT22;34866;48.670;18.260;2023-06-04T14:16:10;384.10;588.80
49052;DHT22;34866;48.670;18.260;2023-06-04T14:18:54;384.20;793.60
49052;DHT22;34866;48.670;18.260;2023-06-04T14:21:20;384.40;128.00
49052;DHT22;34866;48.670;18.260;2023-06-04T14:23:47;384.40;128.00
49052;DHT22;34866;48.670;18.260;2023-06-04T14:26:13;384.40;307.20
49052;DHT22;34866;48.670;18.260;2023-06-04T14:28:39;384.70;128.00
49052;DHT22;34866;48.670;18.260;2023-06-04T14:31:06;384.70;512.00
49052;DHT22;34866;48.670;18.260;2023-06-04T14:33:32;384.70;128.00
49052;DHT22;34866;48.670;18.260;2023-06-04T14:35:59;384.70;537.60
49052;DHT22;34866;48.670;18.260;2023-06-04T14:38:24;384.70;435.20
49052;DHT22;34866;48.670;18.260;2023-06-04T14:40:50;384.70;358.40
49052;DHT22;34866;48.670;18.260;2023-06-04T14:43:15;384.70;204.80
49052;DHT22;34866;48.670;18.260;2023-06-04T14:45:41;384.70;1024.00
49052;DHT22;34866;48.670;18.260;2023-06-04T14:48:07;384.80;665.60
49052;DHT22;34866;48.670;18.260;2023-06-04T14:50:33;384.80;998.40
49052;DHT22;34866;48.670;18.260;2023-06-04T14:52:59;384.80;128.00
49052;DHT22;34866;48.670;18.260;2023-06-04T14:55:34;384.70;409.60
49052;DHT22;34866;48.670;18.260;2023-06-04T14:58:00;384.70;307.20
49052;DHT22;34866;48.670;18.260;2023-06-04T15:00:26;384.80;1561.60
49052;DHT22;34866;48.670;18.260;2023-06-04T15:02:51;384.80;1612.80
49052;DHT22;34866;48.670;18.260;2023-06-04T15:05:17;384.90;486.40
49052;DHT22;34866;48.670;18.260;2023-06-04T15:07:42;384.90;1305.60
49052;DHT22;34866;48.670;18.260;2023-06-04T15:10:08;409.70;1049.60
49052;DHT22;34866;48.670;18.260;2023-06-04T15:12:34;409.70;1126.40
49052;DHT22;34866;48.670;18.260;2023-06-04T15:15:06;409.80;358.40
49052;DHT22;34866;48.670;18.260;2023-06-04T15:17:32;409.80;128.00
49052;DHT22;34866;48.670;18.260;2023-06-04T15:19:57;409.90;128.00
49052;DHT22;34866;48.670;18.260;2023-06-04T15:22:33;409.70;153.60
49052;DHT22;34866;48.670;18.260;2023-06-04T15:24:58;409.70;640.00
49052;DHT22;34866;48.670;18.260;2023-06-04T15:27:24;409.70;128.00
49052;DHT22;34866;48.670;18.260;2023-06-04T15:29:50;409.70;179.20